Time;durP1;ratioP1;P1;durP2;ratioP2;P2;SDS_P1;SDS_P2;PMS_P1;PMS_P2;Temp;Humidity;BMP_temperature;BMP_pressure;BME280_temperature;BME280_humidity;BME280_pressure;Samples;Min_cycle;Max_cycle;Signal;HPM_P1;HPM_P2
2022/04/24 00:01:32;;;;;;;;;;;18.10;99.90;;;;;;4863708;29;19942;-78
2022/04/24 00:03:59;;;;;;;;;;;18.30;99.90;;;;;;4879219;29;19928;-74
2022/04/24 00:06:26;;;;;;;;;;;18.30;99.90;;;;;;4879705;29;19967;-75
2022/04/24 00:08:52;;;;;;;;;;;18.30;99.90;;;;;;4879400;29;20011;-76
2022/04/24 00:11:19;;;;;;;;;;;18.30;99.90;;;;;;4879631;29;19916;-77
2022/04/24 00:13:46;;;;;;;;;;;18.30;99.90;;;;;;4879448;29;19912;-78
2022/04/24 00:16:12;;;;;;;;;;;18.40;99.90;;;;;;4879660;29;20332;-76
2022/04/24 00:18:39;;;;;;;;;;;18.40;99.90;;;;;;4879203;29;19911;-78
2022/04/24 00:21:05;;;;;;;;;;;18.40;99.90;;;;;;4879724;29;19912;-77
2022/04/24 00:23:32;;;;;;;;;;;18.40;99.90;;;;;;4879279;29;20149;-77
2022/04/24 00:25:59;;;;;;;;;;;18.50;99.90;;;;;;4878297;29;19926;-77
2022/04/24 00:28:26;;;;;;;;;;;18.50;99.90;;;;;;4879286;29;19912;-78
2022/04/24 00:30:53;;;;;;;;;;;18.60;99.90;;;;;;4879187;29;20391;-78
2022/04/24 00:33:20;;;;;;;;;;;18.70;99.90;;;;;;4879400;29;20002;-77
2022/04/24 00:35:46;;;;;;;;;;;18.80;99.90;;;;;;4879313;29;19976;-77
2022/04/24 00:38:13;;;;;;;;;;;19.10;99.90;;;;;;4878899;29;19972;-78
2022/04/24 00:40:39;;;;;;;;;;;19.20;99.90;;;;;;4880045;29;19912;-77
2022/04/24 00:43:06;;;;;;;;;;;19.20;99.90;;;;;;4880359;29;19911;-77
2022/04/24 00:45:33;;;;;;;;;;;19.40;99.90;;;;;;4880218;29;19920;-78
2022/04/24 00:47:59;;;;;;;;;;;19.40;99.90;;;;;;4880058;29;20424;-77
2022/04/24 00:50:26;;;;;;;;;;;19.50;99.90;;;;;;4879900;29;19920;-78
2022/04/24 00:52:53;;;;;;;;;;;19.50;99.90;;;;;;4879651;29;20010;-77
2022/04/24 00:55:23;;;;;;;;;;;19.50;99.90;;;;;;4879956;29;19912;-77
2022/04/24 00:57:51;;;;;;;;;;;19.50;99.90;;;;;;4879637;29;20385;-78
2022/04/24 01:00:18;;;;;;;;;;;19.30;99.90;;;;;;4879714;29;20015;-78
2022/04/24 01:02:44;;;;;;;;;;;19.20;99.90;;;;;;4879422;29;20395;-78
2022/04/24 01:05:11;;;;;;;;;;;19.30;99.90;;;;;;4879812;29;19912;-79
2022/04/24 01:07:38;;;;;;;;;;;19.50;99.90;;;;;;4879426;29;19920;-78
2022/04/24 01:10:05;;;;;;;;;;;19.80;99.90;;;;;;4879832;29;19968;-79
2022/04/24 01:12:31;;;;;;;;;;;20.30;99.90;;;;;;4879870;29;19951;-78
2022/04/24 01:14:58;;;;;;;;;;;20.40;99.90;;;;;;4879957;29;19919;-79
2022/04/24 01:17:25;;;;;;;;;;;20.60;99.90;;;;;;4879828;29;20007;-78
2022/04/24 01:19:52;;;;;;;;;;;20.60;99.90;;;;;;4879439;29;19919;-76
2022/04/24 01:22:19;;;;;;;;;;;20.40;99.90;;;;;;4879313;29;19912;-76
2022/04/24 01:24:45;;;;;;;;;;;20.30;99.90;;;;;;4879419;29;19912;-78
2022/04/24 01:27:12;;;;;;;;;;;20.30;99.90;;;;;;4879453;29;19916;-78
2022/04/24 01:29:39;;;;;;;;;;;20.40;99.90;;;;;;4879252;29;19920;-77
2022/04/24 01:32:06;;;;;;;;;;;20.50;99.90;;;;;;4878982;29;19912;-77
2022/04/24 01:34:32;;;;;;;;;;;20.40;99.90;;;;;;4878838;29;19931;-76
2022/04/24 01:36:59;;;;;;;;;;;20.40;99.90;;;;;;4880797;29;19912;-77
2022/04/24 01:39:26;;;;;;;;;;;20.40;99.90;;;;;;4883128;29;19912;-77
2022/04/24 01:41:55;;;;;;;;;;;20.30;99.90;;;;;;4882986;29;20011;-76
2022/04/24 01:44:22;;;;;;;;;;;20.50;99.90;;;;;;4882866;29;19916;-77
2022/04/24 01:46:49;;;;;;;;;;;20.70;99.90;;;;;;4882789;29;20003;-77
2022/04/24 01:49:15;;;;;;;;;;;20.60;99.90;;;;;;4882874;29;20030;-77
2022/04/24 01:51:44;;;;;;;;;;;20.60;99.90;;;;;;4882599;29;19916;-77
2022/04/24 01:54:11;;;;;;;;;;;20.70;99.90;;;;;;4881497;29;20432;-77
2022/04/24 01:56:37;;;;;;;;;;;20.70;99.90;;;;;;4882773;29;19959;-77
2022/04/24 01:59:04;;;;;;;;;;;20.50;99.90;;;;;;4882748;29;19919;-76
2022/04/24 02:01:31;;;;;;;;;;;20.30;99.90;;;;;;4881343;29;20344;-77
2022/04/24 02:03:57;;;;;;;;;;;20.30;99.90;;;;;;4865848;29;19924;-77
2022/04/24 02:06:24;;;;;;;;;;;20.20;99.90;;;;;;4882628;29;19918;-77
2022/04/24 02:08:51;;;;;;;;;;;20.20;99.90;;;;;;4882550;29;19999;-77
2022/04/24 02:11:20;;;;;;;;;;;20.10;99.90;;;;;;4882741;29;19916;-77
2022/04/24 02:13:47;;;;;;;;;;;20.00;99.90;;;;;;4865667;29;19969;-78
2022/04/24 02:16:13;;;;;;;;;;;20.00;99.90;;;;;;4865814;29;19946;-77
2022/04/24 02:18:40;;;;;;;;;;;19.90;99.90;;;;;;4882431;29;19947;-77
2022/04/24 02:21:07;;;;;;;;;;;19.90;99.90;;;;;;4882445;29;19919;-78
2022/04/24 02:23:34;;;;;;;;;;;19.90;99.90;;;;;;4880952;29;19912;-77
2022/04/24 02:26:01;;;;;;;;;;;19.80;99.90;;;;;;4870079;29;19922;-77
2022/04/24 02:28:27;;;;;;;;;;;19.80;99.90;;;;;;4866776;29;19916;-77
2022/04/24 02:30:54;;;;;;;;;;;19.70;99.90;;;;;;4862649;29;19920;-78
2022/04/24 02:33:20;;;;;;;;;;;19.80;99.90;;;;;;4862781;29;19987;-77
2022/04/24 02:35:47;;;;;;;;;;;19.90;99.90;;;;;;4862750;29;19974;-77
2022/04/24 02:38:14;;;;;;;;;;;19.90;99.90;;;;;;4862111;29;20432;-77
2022/04/24 02:40:40;;;;;;;;;;;19.80;99.90;;;;;;4862837;29;19912;-80
2022/04/24 02:43:07;;;;;;;;;;;19.80;99.90;;;;;;4862880;29;19923;-78
2022/04/24 02:45:34;;;;;;;;;;;19.80;99.90;;;;;;4862492;29;19943;-77
2022/04/24 02:48:02;;;;;;;;;;;19.80;99.90;;;;;;4861587;29;19916;-77
2022/04/24 02:50:29;;;;;;;;;;;19.90;99.90;;;;;;4862487;29;19969;-78
2022/04/24 02:52:56;;;;;;;;;;;20.00;99.90;;;;;;4861812;29;19912;-77
2022/04/24 02:55:23;;;;;;;;;;;20.20;99.90;;;;;;4862577;29;20002;-78
2022/04/24 02:57:50;;;;;;;;;;;20.10;99.90;;;;;;4861978;29;20007;-77
2022/04/24 03:00:24;;;;;;;;;;;20.00;99.90;;;;;;4862399;29;19912;-76
2022/04/24 03:02:52;;;;;;;;;;;19.90;99.90;;;;;;4862231;29;20273;-77
2022/04/24 03:05:19;;;;;;;;;;;19.90;99.90;;;;;;4862502;29;19981;-76
2022/04/24 03:07:47;;;;;;;;;;;19.90;99.90;;;;;;4861390;29;19928;-77
2022/04/24 03:10:15;;;;;;;;;;;20.00;99.90;;;;;;4862263;29;19920;-77
2022/04/24 03:12:42;;;;;;;;;;;20.00;99.90;;;;;;4862080;29;19916;-77
2022/04/24 03:15:09;;;;;;;;;;;20.10;99.90;;;;;;4862233;29;19912;-77
2022/04/24 03:17:36;;;;;;;;;;;20.30;99.90;;;;;;4862069;29;20273;-77
2022/04/24 03:20:04;;;;;;;;;;;20.40;99.90;;;;;;4862150;29;19916;-77
2022/04/24 03:22:33;;;;;;;;;;;20.40;99.90;;;;;;4861277;29;19966;-77
2022/04/24 03:25:03;;;;;;;;;;;20.40;99.90;;;;;;4861710;29;19920;-77
2022/04/24 03:27:30;;;;;;;;;;;20.30;99.90;;;;;;4861958;29;19912;-77
2022/04/24 03:29:57;;;;;;;;;;;20.20;99.90;;;;;;4861822;29;19927;-77
2022/04/24 03:32:24;;;;;;;;;;;20.40;99.90;;;;;;4861747;29;19938;-76
2022/04/24 03:34:51;;;;;;;;;;;20.40;99.90;;;;;;4861896;29;19912;-77
2022/04/24 03:37:18;;;;;;;;;;;20.50;99.90;;;;;;4861016;29;20316;-77
2022/04/24 03:39:45;;;;;;;;;;;20.60;99.90;;;;;;4861650;29;19916;-78
2022/04/24 03:42:12;;;;;;;;;;;20.50;99.90;;;;;;4861621;29;19921;-77
2022/04/24 03:44:38;;;;;;;;;;;20.50;99.90;;;;;;4880828;29;19940;-77
2022/04/24 03:47:06;;;;;;;;;;;20.60;99.90;;;;;;4880912;29;19912;-77
2022/04/24 03:49:32;;;;;;;;;;;20.60;99.90;;;;;;4880713;29;19924;-78
2022/04/24 03:51:59;;;;;;;;;;;20.70;99.90;;;;;;4880719;29;19911;-78
2022/04/24 03:54:26;;;;;;;;;;;20.60;99.90;;;;;;4880931;29;19947;-78
2022/04/24 03:56:52;;;;;;;;;;;20.40;99.90;;;;;;4880946;29;19915;-78
2022/04/24 03:59:19;;;;;;;;;;;20.30;99.90;;;;;;4880475;29;19912;-78
2022/04/24 04:01:46;;;;;;;;;;;20.30;99.90;;;;;;4880534;29;19911;-78
2022/04/24 04:04:12;;;;;;;;;;;20.20;99.90;;;;;;4880335;29;19924;-77
2022/04/24 04:06:39;;;;;;;;;;;20.20;99.90;;;;;;4880394;29;19918;-78
2022/04/24 04:09:05;;;;;;;;;;;20.30;99.90;;;;;;4880565;29;19916;-77
2022/04/24 04:11:32;;;;;;;;;;;20.30;99.90;;;;;;4880401;29;19915;-77
2022/04/24 04:13:59;;;;;;;;;;;20.40;99.90;;;;;;4880367;29;20378;-77
2022/04/24 04:16:25;;;;;;;;;;;20.40;99.90;;;;;;4880517;29;19912;-77
2022/04/24 04:18:52;;;;;;;;;;;20.40;99.90;;;;;;4880232;29;19960;-77
2022/04/24 04:21:19;;;;;;;;;;;20.40;99.90;;;;;;4880215;29;19916;-77
2022/04/24 04:23:45;;;;;;;;;;;20.40;99.90;;;;;;4880098;29;19912;-76
2022/04/24 04:26:12;;;;;;;;;;;20.50;99.90;;;;;;4880346;29;19912;-77
2022/04/24 04:28:39;;;;;;;;;;;20.50;99.90;;;;;;4880165;29;19968;-77
2022/04/24 04:31:06;;;;;;;;;;;20.50;99.90;;;;;;4879854;29;19924;-77
2022/04/24 04:33:32;;;;;;;;;;;20.50;99.90;;;;;;4862970;29;19912;-76
2022/04/24 04:35:59;;;;;;;;;;;20.60;99.90;;;;;;4879808;29;19955;-77
2022/04/24 04:38:25;;;;;;;;;;;20.60;99.90;;;;;;4880000;29;19916;-77
2022/04/24 04:40:52;;;;;;;;;;;20.60;99.90;;;;;;4880103;29;19916;-77
2022/04/24 04:43:19;;;;;;;;;;;20.50;99.90;;;;;;4880074;29;19935;-77
2022/04/24 04:45:47;;;;;;;;;;;20.50;99.90;;;;;;4879780;29;19911;-77
2022/04/24 04:48:14;;;;;;;;;;;20.40;99.90;;;;;;4879751;29;19922;-77
2022/04/24 04:50:40;;;;;;;;;;;20.40;99.90;;;;;;4879884;29;20356;-77
2022/04/24 04:53:07;;;;;;;;;;;20.40;99.90;;;;;;4879753;29;20264;-76
2022/04/24 04:55:34;;;;;;;;;;;20.40;99.90;;;;;;4879456;29;20378;-76
2022/04/24 04:58:00;;;;;;;;;;;20.40;99.90;;;;;;4879636;29;19959;-76
2022/04/24 05:00:27;;;;;;;;;;;20.40;99.90;;;;;;4879749;29;19912;-75
2022/04/24 05:02:54;;;;;;;;;;;20.40;99.90;;;;;;4879336;29;19923;-75
2022/04/24 05:05:20;;;;;;;;;;;20.30;99.90;;;;;;4879682;29;19960;-75
2022/04/24 05:07:47;;;;;;;;;;;20.30;99.90;;;;;;4879278;29;20009;-75
2022/04/24 05:10:14;;;;;;;;;;;20.20;99.90;;;;;;4879376;29;19924;-76
2022/04/24 05:12:41;;;;;;;;;;;20.20;99.90;;;;;;4879035;29;19912;-76
2022/04/24 05:15:09;;;;;;;;;;;20.20;99.90;;;;;;4879322;29;19919;-76
2022/04/24 05:17:36;;;;;;;;;;;20.10;99.90;;;;;;4879120;29;19936;-75
2022/04/24 05:20:04;;;;;;;;;;;20.10;99.90;;;;;;4879476;29;20056;-75
2022/04/24 05:22:30;;;;;;;;;;;20.10;99.90;;;;;;4879148;29;19959;-75
2022/04/24 05:24:57;;;;;;;;;;;20.10;99.90;;;;;;4879593;29;19947;-75
2022/04/24 05:27:24;;;;;;;;;;;20.10;99.90;;;;;;4879596;29;20252;-75
2022/04/24 05:29:50;;;;;;;;;;;20.00;99.90;;;;;;4878873;29;19949;-76
2022/04/24 05:32:17;;;;;;;;;;;20.10;99.90;;;;;;4879234;29;20431;-76
2022/04/24 05:34:45;;;;;;;;;;;20.10;99.90;;;;;;4879274;29;20356;-76
2022/04/24 05:37:11;;;;;;;;;;;20.00;99.90;;;;;;4879112;29;19916;-76
2022/04/24 05:39:38;;;;;;;;;;;20.10;99.90;;;;;;4879144;29;19967;-76
2022/04/24 05:42:05;;;;;;;;;;;20.10;99.90;;;;;;4879338;29;19911;-76
2022/04/24 05:44:32;;;;;;;;;;;20.00;99.90;;;;;;4879258;29;19943;-76
2022/04/24 05:46:59;;;;;;;;;;;20.00;99.90;;;;;;4879386;29;20364;-76
2022/04/24 05:49:26;;;;;;;;;;;20.10;99.90;;;;;;4879017;29;20011;-76
2022/04/24 05:51:53;;;;;;;;;;;20.00;99.90;;;;;;4879033;29;19966;-76
2022/04/24 05:54:19;;;;;;;;;;;19.90;99.90;;;;;;4879522;29;19918;-76
2022/04/24 05:56:46;;;;;;;;;;;19.90;99.90;;;;;;4862698;29;19982;-76
2022/04/24 05:59:12;;;;;;;;;;;19.90;99.90;;;;;;4879693;29;19986;-76
2022/04/24 06:01:39;;;;;;;;;;;19.90;99.90;;;;;;4879168;29;19928;-76
2022/04/24 06:04:06;;;;;;;;;;;19.90;99.90;;;;;;4879449;29;19924;-76
2022/04/24 06:06:32;;;;;;;;;;;19.90;99.90;;;;;;4862346;29;19916;-76
2022/04/24 06:08:59;;;;;;;;;;;19.80;99.90;;;;;;4879141;29;19919;-76
2022/04/24 06:11:26;;;;;;;;;;;19.80;99.90;;;;;;4879271;29;19994;-77
2022/04/24 06:13:53;;;;;;;;;;;19.80;99.90;;;;;;4878969;29;19911;-77
2022/04/24 06:16:19;;;;;;;;;;;19.80;99.90;;;;;;4878862;29;19912;-77
2022/04/24 06:18:46;;;;;;;;;;;19.80;99.90;;;;;;4878902;29;20398;-77
2022/04/24 06:21:12;;;;;;;;;;;19.80;99.90;;;;;;4878877;29;19915;-77
2022/04/24 06:23:39;;;;;;;;;;;19.60;99.90;;;;;;4864469;29;20006;-77
2022/04/24 06:26:06;;;;;;;;;;;19.60;99.90;;;;;;4882254;29;20469;-78
2022/04/24 06:28:32;;;;;;;;;;;19.60;99.90;;;;;;4882285;29;19950;-77
2022/04/24 06:30:59;;;;;;;;;;;19.60;99.90;;;;;;4882344;29;19920;-76
2022/04/24 06:33:26;;;;;;;;;;;19.50;99.90;;;;;;4882259;29;19912;-78
2022/04/24 06:35:53;;;;;;;;;;;19.50;99.90;;;;;;4881647;29;20372;-78
2022/04/24 06:38:22;;;;;;;;;;;19.40;99.90;;;;;;4882109;29;19960;-77
2022/04/24 06:40:48;;;;;;;;;;;19.40;99.90;;;;;;4882104;29;19912;-78
2022/04/24 06:43:15;;;;;;;;;;;19.30;99.90;;;;;;4882190;29;19912;-77
2022/04/24 06:45:42;;;;;;;;;;;19.30;99.90;;;;;;4881651;29;19912;-78
2022/04/24 06:48:13;;;;;;;;;;;19.20;99.90;;;;;;4881786;29;20403;-78
2022/04/24 06:50:41;;;;;;;;;;;19.20;99.90;;;;;;4881792;29;19919;-77
2022/04/24 06:53:09;;;;;;;;;;;19.20;99.90;;;;;;4881832;29;19955;-77
2022/04/24 06:55:40;;;;;;;;;;;19.20;99.90;;;;;;4881746;29;19912;-78
2022/04/24 06:58:08;;;;;;;;;;;19.30;99.90;;;;;;4881822;29;19919;-78
2022/04/24 07:00:38;;;;;;;;;;;19.20;99.90;;;;;;4881848;29;19976;-77
2022/04/24 07:03:24;;;;;;;;;;;19.20;99.90;;;;;;4864667;29;20324;-77
2022/04/24 07:05:54;;;;;;;;;;;19.20;99.90;;;;;;4881388;29;20454;-76
2022/04/24 07:08:21;;;;;;;;;;;19.30;99.90;;;;;;4881667;29;19912;-77
2022/04/24 07:10:48;;;;;;;;;;;19.20;99.90;;;;;;4881430;29;19952;-76
2022/04/24 07:13:15;;;;;;;;;;;19.10;99.90;;;;;;4881541;29;19911;-76
2022/04/24 07:15:41;;;;;;;;;;;19.10;99.90;;;;;;4881203;29;19959;-76
2022/04/24 07:18:08;;;;;;;;;;;19.10;99.90;;;;;;4881518;29;19912;-75
2022/04/24 07:20:35;;;;;;;;;;;19.00;99.90;;;;;;4881410;29;19912;-76
2022/04/24 07:23:03;;;;;;;;;;;19.00;99.90;;;;;;4881383;29;20279;-76
2022/04/24 07:25:33;;;;;;;;;;;18.90;99.90;;;;;;4881262;29;20352;-76
2022/04/24 07:28:00;;;;;;;;;;;18.90;99.90;;;;;;4881358;29;19960;-77
2022/04/24 07:30:27;;;;;;;;;;;18.90;99.90;;;;;;4881089;29;19986;-77
2022/04/24 07:32:54;;;;;;;;;;;18.90;99.90;;;;;;4880889;29;20308;-77
2022/04/24 07:35:22;;;;;;;;;;;18.90;99.90;;;;;;4880346;29;19975;-78
2022/04/24 07:37:49;;;;;;;;;;;18.90;99.90;;;;;;4880849;29;19916;-76
2022/04/24 07:40:16;;;;;;;;;;;18.80;99.90;;;;;;4881063;29;20324;-77
2022/04/24 07:42:47;;;;;;;;;;;18.80;99.90;;;;;;4881111;29;19965;-77
2022/04/24 07:45:17;;;;;;;;;;;18.80;99.90;;;;;;4880929;29;19928;-77
2022/04/24 07:47:47;;;;;;;;;;;18.80;99.90;;;;;;4880738;29;19912;-77
2022/04/24 07:50:14;;;;;;;;;;;18.80;99.90;;;;;;4880447;29;20340;-77
2022/04/24 07:52:41;;;;;;;;;;;18.90;99.90;;;;;;4880928;29;19969;-77
2022/04/24 07:55:10;;;;;;;;;;;18.80;99.90;;;;;;4880679;29;19916;-77
2022/04/24 07:57:37;;;;;;;;;;;18.80;99.90;;;;;;4880548;29;20321;-77
2022/04/24 08:00:03;;;;;;;;;;;18.80;99.90;;;;;;4880403;29;19916;-77
2022/04/24 08:02:30;;;;;;;;;;;18.80;99.90;;;;;;4880326;29;20253;-76
2022/04/24 08:04:57;;;;;;;;;;;18.80;99.90;;;;;;4880601;29;19923;-76
2022/04/24 08:07:23;;;;;;;;;;;18.80;99.90;;;;;;4880556;29;19922;-76
2022/04/24 08:09:50;;;;;;;;;;;18.90;99.90;;;;;;4880395;29;19963;-78
2022/04/24 08:12:17;;;;;;;;;;;18.80;99.90;;;;;;4880504;29;19919;-77
2022/04/24 08:14:43;;;;;;;;;;;18.80;99.90;;;;;;4880417;29;20279;-77
2022/04/24 08:17:10;;;;;;;;;;;18.80;99.90;;;;;;4880260;29;19912;-76
2022/04/24 08:19:37;;;;;;;;;;;18.80;99.90;;;;;;4880174;29;19912;-76
2022/04/24 08:22:03;;;;;;;;;;;18.80;99.90;;;;;;4875268;29;20261;-76
2022/04/24 08:24:30;;;;;;;;;;;18.80;99.90;;;;;;4870572;29;19912;-77
2022/04/24 08:26:56;;;;;;;;;;;18.80;99.90;;;;;;4861109;29;19912;-79
2022/04/24 08:29:23;;;;;;;;;;;18.80;99.90;;;;;;4860928;29;19916;-79
2022/04/24 08:31:50;;;;;;;;;;;18.80;99.90;;;;;;4859850;29;19920;-76
2022/04/24 08:34:16;;;;;;;;;;;18.80;99.90;;;;;;4860641;29;19913;-79
2022/04/24 08:36:43;;;;;;;;;;;18.80;99.90;;;;;;4860703;29;19923;-76
2022/04/24 08:39:10;;;;;;;;;;;18.80;99.90;;;;;;4860678;29;19967;-76
2022/04/24 08:41:37;;;;;;;;;;;18.70;99.90;;;;;;4860457;29;20343;-77
2022/04/24 08:44:07;;;;;;;;;;;18.70;99.90;;;;;;4860533;29;19923;-77
2022/04/24 08:46:34;;;;;;;;;;;18.70;99.90;;;;;;4859339;29;19936;-78
2022/04/24 08:49:02;;;;;;;;;;;18.70;99.90;;;;;;4860711;29;19913;-77
2022/04/24 08:51:28;;;;;;;;;;;18.70;99.90;;;;;;4860537;29;19912;-77
2022/04/24 08:53:56;;;;;;;;;;;18.70;99.90;;;;;;4860286;29;20007;-77
2022/04/24 08:56:23;;;;;;;;;;;18.70;99.90;;;;;;4860423;29;19920;-77
2022/04/24 08:58:50;;;;;;;;;;;18.70;99.90;;;;;;4860580;29;20003;-76
2022/04/24 09:01:16;;;;;;;;;;;18.60;99.90;;;;;;4859950;29;19948;-77
2022/04/24 09:03:43;;;;;;;;;;;18.50;99.90;;;;;;4859870;29;20037;-76
2022/04/24 09:06:19;;;;;;;;;;;18.50;99.90;;;;;;4860283;29;20356;-76
2022/04/24 09:08:46;;;;;;;;;;;18.40;99.90;;;;;;4860270;29;20003;-77
2022/04/24 09:11:13;;;;;;;;;;;18.40;99.90;;;;;;4860231;29;19928;-77
2022/04/24 09:16:38;;;;;;;;;;;18.40;99.90;;;;;;4859845;29;19966;-78
2022/04/24 09:19:05;;;;;;;;;;;18.40;99.90;;;;;;4860176;29;20370;-77
2022/04/24 09:21:31;;;;;;;;;;;18.40;99.90;;;;;;4859958;29;19976;-78
2022/04/24 09:23:59;;;;;;;;;;;18.40;99.90;;;;;;4860154;29;20016;-78
2022/04/24 09:26:26;;;;;;;;;;;18.30;99.90;;;;;;4860133;29;20325;-77
2022/04/24 09:28:53;;;;;;;;;;;18.30;99.90;;;;;;4860041;29;19922;-77
2022/04/24 09:31:19;;;;;;;;;;;18.30;99.90;;;;;;4859461;29;20285;-76
2022/04/24 09:33:46;;;;;;;;;;;18.30;99.90;;;;;;4859764;29;20402;-77
2022/04/24 09:36:15;;;;;;;;;;;18.30;99.90;;;;;;4859790;29;19948;-77
2022/04/24 09:38:46;;;;;;;;;;;18.20;99.90;;;;;;4860056;29;19947;-78
2022/04/24 09:41:16;;;;;;;;;;;18.20;99.90;;;;;;4860104;29;19995;-77
2022/04/24 09:43:43;;;;;;;;;;;18.10;99.90;;;;;;4859654;29;19916;-79
2022/04/24 09:46:10;;;;;;;;;;;18.10;99.90;;;;;;4859378;29;19952;-77
2022/04/24 09:48:37;;;;;;;;;;;18.00;99.90;;;;;;4860288;29;20433;-77
2022/04/24 09:51:04;;;;;;;;;;;18.00;99.90;;;;;;4859733;29;19920;-77
2022/04/24 09:53:31;;;;;;;;;;;18.00;99.90;;;;;;4859539;29;19919;-77
2022/04/24 09:55:59;;;;;;;;;;;17.90;99.90;;;;;;4859779;29;20245;-77
2022/04/24 09:58:26;;;;;;;;;;;18.00;99.90;;;;;;4861359;29;20407;-75
2022/04/24 10:00:52;;;;;;;;;;;17.90;99.90;;;;;;4863214;29;19920;-77
2022/04/24 10:03:20;;;;;;;;;;;18.00;99.90;;;;;;4863080;29;19924;-77
2022/04/24 10:05:48;;;;;;;;;;;17.90;99.90;;;;;;4863025;29;19919;-77
2022/04/24 10:08:15;;;;;;;;;;;17.90;99.90;;;;;;4863429;29;19912;-77
2022/04/24 10:10:42;;;;;;;;;;;17.90;99.90;;;;;;4863429;29;19928;-76
2022/04/24 10:13:10;;;;;;;;;;;17.80;99.90;;;;;;4863082;29;19913;-77
2022/04/24 10:15:37;;;;;;;;;;;17.80;99.90;;;;;;4863042;29;19913;-77
2022/04/24 10:18:14;;;;;;;;;;;17.80;99.90;;;;;;4863200;29;20420;-76
2022/04/24 10:20:49;;;;;;;;;;;17.80;99.90;;;;;;4880285;29;19912;-76
2022/04/24 10:23:26;;;;;;;;;;;17.80;99.90;;;;;;4882340;29;19960;-78
2022/04/24 10:25:53;;;;;;;;;;;17.80;99.90;;;;;;4882152;29;20315;-77
2022/04/24 10:28:20;;;;;;;;;;;17.80;99.90;;;;;;4882371;29;20006;-78
2022/04/24 10:30:59;;;;;;;;;;;17.80;99.90;;;;;;4882084;29;20023;-75
2022/04/24 10:33:32;;;;;;;;;;;17.80;99.90;;;;;;4882451;29;20411;-76
2022/04/24 10:36:11;;;;;;;;;;;17.80;99.90;;;;;;4882259;29;19919;-76
2022/04/24 10:38:48;;;;;;;;;;;17.70;99.90;;;;;;4882215;29;19912;-76
2022/04/24 10:41:19;;;;;;;;;;;17.70;99.90;;;;;;4881888;29;19951;-76
2022/04/24 10:43:47;;;;;;;;;;;17.70;99.90;;;;;;4881781;29;20241;-76
2022/04/24 10:46:21;;;;;;;;;;;17.70;99.90;;;;;;4881850;29;19923;-76
2022/04/24 10:48:48;;;;;;;;;;;17.70;99.90;;;;;;4881878;29;20388;-76
2022/04/24 10:51:26;;;;;;;;;;;17.60;99.90;;;;;;4881705;29;20061;-76
2022/04/24 10:54:01;;;;;;;;;;;17.60;99.90;;;;;;4881496;29;19915;-76
2022/04/24 10:56:29;;;;;;;;;;;17.50;99.90;;;;;;4881722;29;19916;-76
2022/04/24 10:59:08;;;;;;;;;;;17.50;99.90;;;;;;4881717;29;19959;-77
2022/04/24 11:01:36;;;;;;;;;;;17.50;99.90;;;;;;4881588;29;19912;-77
2022/04/24 11:04:08;;;;;;;;;;;17.50;99.90;;;;;;4881082;29;20007;-77
2022/04/24 11:06:35;;;;;;;;;;;17.50;99.90;;;;;;4881559;29;19912;-77
2022/04/24 11:09:09;;;;;;;;;;;17.50;99.90;;;;;;4880558;29;19912;-77
2022/04/24 11:12:05;;;;;;;;;;;17.50;99.90;;;;;;4881375;29;19916;-76
2022/04/24 11:14:32;;;;;;;;;;;17.50;99.90;;;;;;4873057;29;20003;-76
2022/04/24 11:17:03;;;;;;;;;;;17.50;99.90;;;;;;4881521;29;19934;-77
2022/04/24 11:19:39;;;;;;;;;;;17.40;99.90;;;;;;4881396;29;19975;-77
2022/04/24 11:22:10;;;;;;;;;;;17.40;99.90;;;;;;4881552;29;19975;-76
2022/04/24 11:24:37;;;;;;;;;;;17.40;99.90;;;;;;4881424;29;19983;-76
2022/04/24 11:27:05;;;;;;;;;;;17.40;99.90;;;;;;4881550;29;19912;-76
2022/04/24 11:29:32;;;;;;;;;;;17.40;99.90;;;;;;4881174;29;19916;-77
2022/04/24 11:32:00;;;;;;;;;;;17.30;99.90;;;;;;4881274;29;19960;-77
2022/04/24 11:34:26;;;;;;;;;;;17.30;99.90;;;;;;4880965;29;20279;-77
2022/04/24 11:36:58;;;;;;;;;;;17.20;99.90;;;;;;4881221;29;19919;-76
2022/04/24 11:39:26;;;;;;;;;;;17.30;99.90;;;;;;4881195;29;19999;-78
2022/04/24 11:41:53;;;;;;;;;;;17.20;99.90;;;;;;4880957;29;20383;-77
2022/04/24 11:52:39;;;;;;;;;;;17.10;99.90;;;;;;4881208;29;19919;-77
2022/04/24 11:55:06;;;;;;;;;;;17.10;99.90;;;;;;4880667;29;19912;-77
2022/04/24 11:57:33;;;;;;;;;;;17.10;99.90;;;;;;4880505;29;20279;-77
2022/04/24 12:00:03;;;;;;;;;;;17.10;99.90;;;;;;4880260;29;19919;-78
2022/04/24 12:02:30;;;;;;;;;;;17.10;99.90;;;;;;4880600;29;19912;-78
2022/04/24 12:04:56;;;;;;;;;;;17.10;99.90;;;;;;4880405;29;20299;-77
2022/04/24 12:07:31;;;;;;;;;;;17.10;99.90;;;;;;4880611;29;19958;-76
2022/04/24 12:09:59;;;;;;;;;;;17.10;99.90;;;;;;4880564;29;19943;-77
2022/04/24 12:12:25;;;;;;;;;;;17.10;99.90;;;;;;4880321;29;19915;-77
2022/04/24 12:14:52;;;;;;;;;;;17.10;99.90;;;;;;4879768;29;19912;-76
2022/04/24 12:17:19;;;;;;;;;;;17.10;99.90;;;;;;4880329;29;20002;-77
2022/04/24 12:19:55;;;;;;;;;;;17.10;99.90;;;;;;4880036;29;20256;-77
2022/04/24 12:22:37;;;;;;;;;;;17.10;99.90;;;;;;4880455;29;20372;-77
2022/04/24 12:25:08;;;;;;;;;;;17.10;99.90;;;;;;4880453;29;19911;-77
2022/04/24 12:27:35;;;;;;;;;;;17.10;99.90;;;;;;4880054;29;20248;-77
2022/04/24 12:30:03;;;;;;;;;;;17.10;99.90;;;;;;4879414;29;19920;-77
2022/04/24 12:32:29;;;;;;;;;;;17.10;99.90;;;;;;4879892;29;19911;-77
2022/04/24 12:34:56;;;;;;;;;;;17.00;99.90;;;;;;4879964;29;20006;-77
2022/04/24 12:37:31;;;;;;;;;;;17.00;99.90;;;;;;4880013;29;19920;-78
2022/04/24 12:39:58;;;;;;;;;;;17.00;99.90;;;;;;4879810;29;19911;-77
2022/04/24 12:42:25;;;;;;;;;;;16.90;99.90;;;;;;4879874;29;19912;-77
2022/04/24 12:44:52;;;;;;;;;;;16.90;99.90;;;;;;4879820;29;20296;-76
2022/04/24 12:47:19;;;;;;;;;;;16.90;99.90;;;;;;4879770;29;19928;-77
2022/04/24 12:49:47;;;;;;;;;;;16.80;99.90;;;;;;4879290;29;19923;-77
2022/04/24 12:52:14;;;;;;;;;;;16.80;99.90;;;;;;4879784;29;20276;-77
2022/04/24 12:54:40;;;;;;;;;;;16.80;99.90;;;;;;4879972;29;19955;-76
2022/04/24 12:57:08;;;;;;;;;;;16.70;99.90;;;;;;4879891;29;19919;-77
2022/04/24 12:59:35;;;;;;;;;;;16.70;99.90;;;;;;4879356;29;19999;-76
2022/04/24 13:02:05;;;;;;;;;;;16.70;99.90;;;;;;4879523;29;19911;-76
2022/04/24 13:04:33;;;;;;;;;;;16.60;99.90;;;;;;4879264;29;19923;-76
2022/04/24 13:07:00;;;;;;;;;;;16.60;99.90;;;;;;4862936;29;19916;-76
2022/04/24 13:09:27;;;;;;;;;;;16.60;99.90;;;;;;4879639;29;19922;-76
2022/04/24 13:11:55;;;;;;;;;;;16.50;99.90;;;;;;4879465;29;19912;-76
2022/04/24 13:14:24;;;;;;;;;;;16.50;99.90;;;;;;4879682;29;19947;-76
2022/04/24 13:19:37;;;;;;;;;;;16.50;99.90;;;;;;4879349;29;20550;-77
2022/04/24 13:22:04;;;;;;;;;;;16.40;99.90;;;;;;4879781;29;19912;-76
2022/04/24 13:24:31;;;;;;;;;;;16.40;99.90;;;;;;4879607;29;19979;-77
2022/04/24 13:26:58;;;;;;;;;;;16.40;99.90;;;;;;4879593;29;19928;-77
2022/04/24 13:29:28;;;;;;;;;;;16.40;99.90;;;;;;4879605;29;19967;-77
2022/04/24 13:31:54;;;;;;;;;;;16.40;99.90;;;;;;4879526;29;20394;-77
2022/04/24 13:34:21;;;;;;;;;;;16.30;99.90;;;;;;4883396;29;19919;-77
2022/04/24 13:38:17;;;;;;;;;;;16.30;99.90;;;;;;4883381;29;19919;-78
2022/04/24 13:39:34;;;;;;;;;;;16.30;99.90;;;;;;4883130;29;19962;-77
2022/04/24 13:42:01;;;;;;;;;;;16.30;99.90;;;;;;4883394;29;19912;-78
2022/04/24 13:44:27;;;;;;;;;;;16.30;99.90;;;;;;4883376;29;19912;-77
2022/04/24 13:46:54;;;;;;;;;;;16.20;99.90;;;;;;4883243;29;20391;-77
2022/04/24 13:49:21;;;;;;;;;;;16.30;99.90;;;;;;4883054;29;19912;-77
2022/04/24 13:51:48;;;;;;;;;;;16.20;99.90;;;;;;4882810;29;20003;-77
2022/04/24 13:54:14;;;;;;;;;;;16.30;99.90;;;;;;4882963;29;19920;-77
2022/04/24 13:56:41;;;;;;;;;;;16.30;99.90;;;;;;4883092;29;19919;-77
2022/04/24 13:59:08;;;;;;;;;;;16.30;99.90;;;;;;4883057;29;19912;-77
2022/04/24 14:01:34;;;;;;;;;;;16.30;99.90;;;;;;4882655;29;20344;-77
2022/04/24 14:04:01;;;;;;;;;;;16.30;99.90;;;;;;4882505;29;20015;-77
2022/04/24 14:06:28;;;;;;;;;;;16.20;99.90;;;;;;4882676;29;19999;-77
2022/04/24 14:08:55;;;;;;;;;;;16.30;99.90;;;;;;4882676;29;20336;-77
2022/04/24 14:11:22;;;;;;;;;;;16.30;99.90;;;;;;4882625;29;19920;-77
2022/04/24 14:13:50;;;;;;;;;;;16.30;99.90;;;;;;4882538;29;19912;-77
2022/04/24 14:16:18;;;;;;;;;;;16.30;99.90;;;;;;4882643;29;19922;-77
2022/04/24 14:18:44;;;;;;;;;;;16.20;99.90;;;;;;4882597;29;19912;-77
2022/04/24 14:21:11;;;;;;;;;;;16.20;99.90;;;;;;4882653;29;19940;-76
2022/04/24 14:23:37;;;;;;;;;;;16.20;99.90;;;;;;4882339;29;20342;-78
2022/04/24 14:26:04;;;;;;;;;;;16.20;99.90;;;;;;4882381;29;20373;-78
2022/04/24 14:28:31;;;;;;;;;;;16.20;99.90;;;;;;4882496;29;19951;-77
2022/04/24 14:30:58;;;;;;;;;;;16.20;99.90;;;;;;4882511;29;20335;-77
2022/04/24 14:33:24;;;;;;;;;;;16.20;99.90;;;;;;4882176;29;19959;-77